createdAt,value
2023-04-04T00:03:27.403Z,100.0
2023-04-04T00:08:27.362Z,100.0
2023-04-04T00:13:27.241Z,100.0
2023-04-04T00:18:27.308Z,100.0
2023-04-04T00:23:27.239Z,100.0
2023-04-04T00:28:27.352Z,100.0
2023-04-04T00:33:27.320Z,100.0
2023-04-04T00:38:27.353Z,100.0
2023-04-04T00:43:27.252Z,100.0
2023-04-04T00:48:27.315Z,100.0
2023-04-04T00:53:27.249Z,100.0
2023-04-04T00:58:27.322Z,100.0
2023-04-04T01:03:27.246Z,100.0
2023-04-04T01:08:27.314Z,100.0
2023-04-04T01:13:27.246Z,100.0
2023-04-04T01:18:27.313Z,100.0
2023-04-04T01:23:27.244Z,100.0
2023-04-04T01:28:27.312Z,100.0
2023-04-04T01:33:27.265Z,100.0
2023-04-04T01:38:27.311Z,100.0
2023-04-04T01:43:27.240Z,100.0
2023-04-04T01:48:27.359Z,100.0
2023-04-04T01:53:27.292Z,100.0
2023-04-04T01:58:27.365Z,100.0
2023-04-04T02:03:27.265Z,100.0
2023-04-04T02:08:27.347Z,100.0
2023-04-04T02:13:27.274Z,100.0
2023-04-04T02:18:27.327Z,100.0
2023-04-04T02:23:27.291Z,100.0
2023-04-04T02:28:27.373Z,100.0
2023-04-04T02:33:27.286Z,100.0
2023-04-04T02:38:27.348Z,100.0
2023-04-04T02:43:27.310Z,100.0
2023-04-04T02:48:27.357Z,100.0
2023-04-04T02:53:27.303Z,100.0
2023-04-04T02:58:27.385Z,100.0
2023-04-04T03:03:27.595Z,100.0
2023-04-04T03:08:27.410Z,100.0
2023-04-04T03:13:27.300Z,100.0
2023-04-04T03:18:27.406Z,100.0
2023-04-04T03:23:27.312Z,100.0
2023-04-04T03:28:27.410Z,100.0
2023-04-04T03:33:27.320Z,100.0
2023-04-04T03:38:27.381Z,100.0
2023-04-04T03:43:27.320Z,100.0
2023-04-04T03:48:27.411Z,100.0
2023-04-04T03:53:27.327Z,100.0
2023-04-04T03:58:27.426Z,100.0
2023-04-04T04:03:27.391Z,100.0
2023-04-04T04:08:27.445Z,100.0
2023-04-04T04:13:27.335Z,100.0
2023-04-04T04:18:27.433Z,100.0
2023-04-04T04:23:27.326Z,100.0
2023-04-04T04:28:33.582Z,100.0
2023-04-04T04:33:27.347Z,100.0
2023-04-04T04:38:27.404Z,100.0
2023-04-04T04:43:27.355Z,100.0
2023-04-04T04:48:27.504Z,100.0
2023-04-04T04:53:27.352Z,100.0
2023-04-04T04:58:28.278Z,100.0
2023-04-04T05:03:27.413Z,100.0
2023-04-04T05:08:27.474Z,100.0
2023-04-04T05:13:27.358Z,100.0
2023-04-04T05:18:27.621Z,100.0
2023-04-04T05:23:27.378Z,100.0
2023-04-04T05:28:27.482Z,100.0
2023-04-04T05:33:27.375Z,100.0
2023-04-04T05:38:27.464Z,100.0
2023-04-04T05:43:27.386Z,100.0
2023-04-04T05:48:27.480Z,100.0
2023-04-04T05:53:27.387Z,100.0
2023-04-04T05:58:27.477Z,100.0
2023-04-04T06:03:27.559Z,100.0
2023-04-04T06:08:27.505Z,100.0
2023-04-04T06:13:27.381Z,100.0
2023-04-04T06:18:27.469Z,100.0
2023-04-04T06:23:27.408Z,100.0
2023-04-04T06:28:27.487Z,100.0
2023-04-04T06:33:27.399Z,100.0
2023-04-04T06:38:27.465Z,100.0
2023-04-04T06:43:29.312Z,100.0
2023-04-04T06:48:27.481Z,100.0
2023-04-04T06:53:27.398Z,100.0
2023-04-04T06:58:27.497Z,100.0
2023-04-04T07:03:27.409Z,100.0
2023-04-04T07:08:30.367Z,100.0
2023-04-04T07:13:27.423Z,100.0
2023-04-04T07:18:27.516Z,100.0
2023-04-04T07:23:27.427Z,100.0
2023-04-04T07:28:27.516Z,100.0
2023-04-04T07:33:27.437Z,100.0
2023-04-04T07:38:27.517Z,100.0
2023-04-04T07:43:27.446Z,100.0
2023-04-04T07:48:27.534Z,100.0
2023-04-04T07:53:27.456Z,100.0
2023-04-04T07:58:27.529Z,100.0
2023-04-04T08:03:27.526Z,100.0
2023-04-04T08:08:27.560Z,100.0
2023-04-04T08:13:27.446Z,100.0
2023-04-04T08:18:27.498Z,100.0
2023-04-04T08:23:27.456Z,100.0
2023-04-04T08:28:27.616Z,100.0
2023-04-04T08:33:37.425Z,100.0
2023-04-04T08:38:27.553Z,100.0
2023-04-04T08:43:27.476Z,100.0
2023-04-04T08:48:27.579Z,100.0
2023-04-04T08:53:27.537Z,100.0
2023-04-04T08:58:27.548Z,100.0
2023-04-04T09:03:27.669Z,100.0
2023-04-04T09:08:27.604Z,100.0
2023-04-04T09:13:27.509Z,100.0
2023-04-04T09:18:27.599Z,100.0
2023-04-04T09:23:27.504Z,100.0
2023-04-04T09:28:27.603Z,100.0
2023-04-04T09:33:27.553Z,100.0
2023-04-04T09:38:27.614Z,100.0
2023-04-04T09:43:27.522Z,100.0
2023-04-04T09:48:27.677Z,100.0
2023-04-04T09:53:27.541Z,100.0
2023-04-04T09:58:27.689Z,100.0
2023-04-04T10:03:27.552Z,100.0
2023-04-04T10:08:27.660Z,100.0
2023-04-04T10:13:27.539Z,100.0
2023-04-04T10:18:27.641Z,100.0
2023-04-04T10:23:27.548Z,100.0
2023-04-04T10:28:27.629Z,100.0
2023-04-04T10:33:27.566Z,100.0
2023-04-04T10:38:27.640Z,100.0
2023-04-04T10:43:27.560Z,100.0
2023-04-04T10:48:27.642Z,100.0
2023-04-04T10:53:27.569Z,100.0
2023-04-04T10:58:27.613Z,100.0
2023-04-04T11:03:27.573Z,100.0
2023-04-04T11:08:27.678Z,100.0
2023-04-04T11:13:27.625Z,100.0
2023-04-04T11:18:33.253Z,100.0
2023-04-04T11:23:27.613Z,100.0
2023-04-04T11:28:27.712Z,100.0
2023-04-04T11:33:27.677Z,100.0
2023-04-04T11:38:27.696Z,100.0
2023-04-04T11:43:27.600Z,100.0
2023-04-04T11:48:27.706Z,100.0
2023-04-04T11:53:27.624Z,100.0
2023-04-04T11:58:27.712Z,100.0
2023-04-04T12:03:27.712Z,100.0
2023-04-04T12:08:27.730Z,100.0
2023-04-04T12:13:27.626Z,100.0
2023-04-04T12:18:27.744Z,100.0
2023-04-04T12:23:27.625Z,100.0
2023-04-04T12:28:28.407Z,100.0
2023-04-04T12:33:27.612Z,100.0
2023-04-04T12:38:27.729Z,100.0
2023-04-04T12:43:27.613Z,100.0
2023-04-04T12:48:27.807Z,100.0
2023-04-04T12:53:29.406Z,100.0
2023-04-04T12:58:27.737Z,100.0
2023-04-04T13:03:27.635Z,100.0
2023-04-04T13:08:27.775Z,100.0
2023-04-04T13:13:27.628Z,100.0
2023-04-04T13:18:27.720Z,100.0
2023-04-04T13:23:27.662Z,100.0
2023-04-04T13:28:27.744Z,100.0
2023-04-04T13:33:27.646Z,100.0
2023-04-04T13:38:27.744Z,100.0
2023-04-04T13:43:27.654Z,100.0
2023-04-04T13:48:27.776Z,100.0
2023-04-04T13:53:27.657Z,100.0
2023-04-04T13:58:27.733Z,99.7
2023-04-04T14:03:27.700Z,100.0
2023-04-04T14:08:27.748Z,97.9
2023-04-04T14:13:27.650Z,97.8
2023-04-04T14:18:27.745Z,96.9
2023-04-04T14:23:27.650Z,96.5
2023-04-04T14:28:27.736Z,96.9
2023-04-04T14:33:27.669Z,97.8
2023-04-04T14:38:27.746Z,97.5
2023-04-04T14:43:27.656Z,97.2
2023-04-04T14:48:27.825Z,98.4
2023-04-04T14:53:27.700Z,98.4
2023-04-04T14:58:27.824Z,96.5
2023-04-04T15:03:27.710Z,98.1
2023-04-04T15:08:27.851Z,97.7
2023-04-04T15:13:27.708Z,97.2
2023-04-04T15:18:27.850Z,97.3
2023-04-04T15:23:27.721Z,99.1
2023-04-04T15:28:27.934Z,96.6
2023-04-04T15:33:27.720Z,97.4
2023-04-04T15:38:27.852Z,97.5
2023-04-04T15:43:27.732Z,98.5
2023-04-04T15:48:27.855Z,99.2
2023-04-04T15:53:27.736Z,100.0
2023-04-04T15:58:27.870Z,100.0
2023-04-04T16:03:27.908Z,100.0
2023-04-04T16:08:27.840Z,99.7
2023-04-04T16:13:27.754Z,100.0
2023-04-04T16:18:27.835Z,100.0
2023-04-04T16:23:27.742Z,100.0
2023-04-04T16:28:27.853Z,100.0
2023-04-04T16:33:27.762Z,100.0
2023-04-04T16:38:27.853Z,100.0
2023-04-04T16:43:27.790Z,100.0
2023-04-04T16:48:27.864Z,100.0
2023-04-04T16:53:27.873Z,100.0
2023-04-04T16:58:27.873Z,100.0
2023-04-04T17:03:27.786Z,100.0
2023-04-04T17:08:27.887Z,100.0
2023-04-04T17:13:27.788Z,100.0
2023-04-04T17:18:27.884Z,100.0
2023-04-04T17:23:27.792Z,100.0
2023-04-04T17:28:27.891Z,100.0
2023-04-04T17:33:27.796Z,100.0
2023-04-04T17:38:27.886Z,100.0
2023-04-04T17:43:27.801Z,100.0
2023-04-04T17:48:27.893Z,100.0
2023-04-04T17:53:27.801Z,100.0
2023-04-04T17:58:27.897Z,100.0
2023-04-04T18:03:27.971Z,100.0
2023-04-04T18:08:27.922Z,100.0
2023-04-04T18:13:27.820Z,100.0
2023-04-04T18:18:27.909Z,100.0
2023-04-04T18:23:27.826Z,100.0
2023-04-04T18:28:27.933Z,100.0
2023-04-04T18:33:27.836Z,100.0
2023-04-04T18:38:27.937Z,100.0
2023-04-04T18:43:27.844Z,100.0
2023-04-04T18:48:27.933Z,100.0
2023-04-04T18:53:27.831Z,100.0
2023-04-04T18:58:27.939Z,100.0
2023-04-04T19:03:27.927Z,100.0
2023-04-04T19:08:27.946Z,100.0
2023-04-04T19:13:27.829Z,100.0
2023-04-04T19:18:27.900Z,100.0
2023-04-04T19:23:27.902Z,100.0
2023-04-04T19:28:27.937Z,100.0
2023-04-04T19:33:27.852Z,100.0
2023-04-04T19:38:27.953Z,100.0
2023-04-04T19:43:27.874Z,100.0
2023-04-04T19:48:27.954Z,100.0
2023-04-04T19:53:27.859Z,100.0
2023-04-04T19:58:27.969Z,100.0
2023-04-04T20:03:27.824Z,100.0
2023-04-04T20:08:27.971Z,100.0
2023-04-04T20:13:27.872Z,100.0
2023-04-04T20:18:27.938Z,100.0
2023-04-04T20:23:27.877Z,100.0
2023-04-04T20:28:27.975Z,100.0
2023-04-04T20:33:27.883Z,100.0
2023-04-04T20:38:27.965Z,100.0
2023-04-04T20:43:27.877Z,100.0
2023-04-04T20:48:27.973Z,100.0
2023-04-04T20:53:27.886Z,100.0
2023-04-04T20:58:28.025Z,100.0
2023-04-04T21:03:27.897Z,100.0
2023-04-04T21:08:28.018Z,100.0
2023-04-04T21:13:27.913Z,100.0
2023-04-04T21:18:27.972Z,100.0
2023-04-04T21:23:27.920Z,100.0
2023-04-04T21:28:28.030Z,100.0
2023-04-04T21:33:27.908Z,100.0
2023-04-04T21:38:28.020Z,100.0
2023-04-04T21:43:27.895Z,100.0
2023-04-04T21:48:27.961Z,100.0
2023-04-04T21:53:27.908Z,100.0
2023-04-04T21:58:28.003Z,100.0
2023-04-04T22:03:27.898Z,100.0
2023-04-04T22:08:28.006Z,100.0
2023-04-04T22:13:27.921Z,100.0
2023-04-04T22:18:27.967Z,100.0
2023-04-04T22:23:27.914Z,100.0
2023-04-04T22:28:28.011Z,100.0
2023-04-04T22:33:27.907Z,100.0
2023-04-04T22:38:28.060Z,100.0
2023-04-04T22:43:27.943Z,100.0
2023-04-04T22:48:28.011Z,100.0
2023-04-04T22:53:27.941Z,100.0
2023-04-04T22:58:28.027Z,100.0
2023-04-04T23:03:27.932Z,100.0
2023-04-04T23:08:28.049Z,100.0
2023-04-04T23:13:27.942Z,100.0
2023-04-04T23:18:28.047Z,100.0
2023-04-04T23:23:27.960Z,100.0
2023-04-04T23:28:28.036Z,100.0
2023-04-04T23:33:27.960Z,100.0
2023-04-04T23:38:28.046Z,100.0
2023-04-04T23:43:27.950Z,100.0
2023-04-04T23:48:28.038Z,100.0
2023-04-04T23:53:27.959Z,100.0
2023-04-04T23:58:28.059Z,100.0
